Grissom ARB Airport
KGUS : now visible

Airfield :











YOU CAN JOIN US ON...

 
LOGIN :

Register | Disclaimer

   EN    FR    IT 

 









Legend :    VFR   Marginal VFR   IFR   Intensive IFR   Very Intensive IFR
Visi :
Ceiling :
>= 8 km
>= 3000ft
5 to 8 km
1000 to 3000 ft
1500m to 5 km
500 to 1000 ft
800 to 1500m
200 to 500 ft
< 800m
< 200 ft
Symbols :   Thunderstorms  Fog  Heavy snow  Heavy precipitations  Wind > 20 kt






- Airport Elevation : 812 ft


KGUS - Grissom ARB

METAR N/A
TAF AMD TAF KGUS
Valid from the 08 at 00:00 until the 09 at 03:00 UTC


080031Z 0800/0903 VRB06KT 9999 SCT020 QNH3024INS
TEMPO 0801/0803 OVC015
BECMG 0803/0804 VRB06KT 2400 BR BKN008 OVC012 QNH3028INS
BECMG 0813/0814 VRB06KT 9999 NSW OVC012 QNH3029INS
BECMG 0901/0902 07006KT 9000 BR BKN005 OVC012 QNH3029INS TX07/0820Z TN01/0813Z LAST NO AMDS AFT 0804 NEXT 0813
KZAU FIR / North America



MET'MAP, your aeronautical weather chart ! - Copyright ORBIFLY December 2007 - Disclaimer

ORBIFLY MET'MAP TEAM :

Programming & Development : Alexandra Zaïnal
Original concept : Baudouin d'Aumeries
Technical & hardware support : Manuel Goepfert
Assistance : Marc-Olivier Méhu




SOURCES & CREDITS :

   NOAA       Earth
Advisory